Time;durP1;ratioP1;P1;durP2;ratioP2;P2;SDS_P1;SDS_P2;PMS_P1;PMS_P2;Temp;Humidity;BMP_temperature;BMP_pressure;BME280_temperature;BME280_humidity;BME280_pressure;Samples;Min_cycle;Max_cycle;Signal;HPM_P1;HPM_P2
2021/11/06 00:01:11;;;;;;;18.43;12.27;;;;;;;;;;5014431;28;20459;-90
2021/11/06 00:03:38;;;;;;;20.13;13.67;;;;;;;;;;5014564;28;20460;-90
2021/11/06 00:06:06;;;;;;;18.47;12.37;;;;;;;;;;5014569;28;20459;-91
2021/11/06 00:08:33;;;;;;;16.30;12.47;;;;;;;;;;5014243;28;20502;-91
2021/11/06 00:11:00;;;;;;;19.37;12.10;;;;;;;;;;5014592;28;20444;-90
2021/11/06 00:13:27;;;;;;;17.73;12.60;;;;;;;;;;5012444;28;20448;-89
2021/11/06 00:15:54;;;;;;;19.10;12.83;;;;;;;;;;5014145;28;20486;-90
2021/11/06 00:18:22;;;;;;;18.83;12.40;;;3.40;99.90;;;;;;5014053;28;20483;-90
2021/11/06 00:20:49;;;;;;;20.57;12.10;;;;;;;;;;5014627;28;20428;-89
2021/11/06 00:23:16;;;;;;;16.97;11.80;;;;;;;;;;5017370;28;20464;-90
2021/11/06 00:25:44;;;;;;;17.40;11.90;;;;;;;;;;5015772;28;20448;-89
2021/11/06 00:28:11;;;;;;;16.67;11.17;;;;;;;;;;5017205;28;20479;-89
2021/11/06 00:30:38;;;;;;;15.83;11.00;;;;;;;;;;5019159;28;20946;-89
2021/11/06 00:33:05;;;;;;;17.17;11.20;;;;;;;;;;5022663;28;20506;-89
2021/11/06 00:35:34;;;;;;;19.43;12.00;;;;;;;;;;5020764;28;20431;-88
2021/11/06 00:38:01;;;;;;;15.80;10.13;;;;;;;;;;5021603;28;20452;-90
2021/11/06 00:40:28;;;;;;;16.27;10.57;;;;;;;;;;5028324;28;20456;-89
2021/11/06 00:42:55;;;;;;;14.33;10.63;;;;;;;;;;5017834;28;20460;-92
2021/11/06 00:45:22;;;;;;;14.40;10.57;;;;;;;;;;5016616;28;20456;-91
2021/11/06 00:47:50;;;;;;;16.77;11.13;;;;;;;;;;5017611;28;20932;-90
2021/11/06 00:50:17;;;;;;;15.37;11.40;;;;;;;;;;5017435;28;20443;-88
2021/11/06 00:52:47;;;;;;;15.97;10.40;;;2.50;99.90;;;;;;5017105;28;20526;-92
2021/11/06 00:55:14;;;;;;;16.57;10.43;;;;;;;;;;5012659;28;20436;-92
2021/11/06 00:57:41;;;;;;;14.53;10.17;;;;;;;;;;5016576;28;20456;-91
2021/11/06 01:00:10;;;;;;;16.17;11.23;;;2.50;99.90;;;;;;5017521;28;20433;-89
2021/11/06 01:02:38;;;;;;;17.73;12.00;;;2.60;99.90;;;;;;5018014;28;20459;-90
2021/11/06 01:05:07;;;;;;;15.50;10.40;;;2.50;99.90;;;;;;5015058;28;20440;-90
2021/11/06 01:07:34;;;;;;;15.93;10.80;;;;;;;;;;5017909;28;20433;-92
2021/11/06 01:10:03;;;;;;;20.63;12.60;;;2.50;99.90;;;;;;5017433;28;20507;-91
2021/11/06 01:12:30;;;;;;;16.07;10.13;;;;;;;;;;5016792;28;20445;-91
2021/11/06 01:14:58;;;;;;;15.90;9.93;;;;;;;;;;5017278;28;20511;-93
2021/11/06 01:17:25;;;;;;;15.43;10.40;;;;;;;;;;5017532;28;20457;-93
2021/11/06 01:19:52;;;;;;;14.93;10.47;;;;;;;;;;5017029;28;20459;-90
2021/11/06 01:22:19;;;;;;;16.33;9.60;;;;;;;;;;5016912;28;20437;-91
2021/11/06 01:24:46;;;;;;;15.97;10.60;;;;;;;;;;5018837;28;20443;-90
2021/11/06 01:27:15;;;;;;;16.80;10.40;;;;;;;;;;5017495;28;20439;-90
2021/11/06 01:29:42;;;;;;;17.20;10.17;;;;;;;;;;5014128;28;20492;-90
2021/11/06 01:32:10;;;;;;;15.53;9.67;;;2.20;99.90;;;;;;5016881;28;20461;-92
2021/11/06 01:34:37;;;;;;;14.40;9.80;;;;;;;;;;5017433;28;20456;-93
2021/11/06 01:37:05;;;;;;;16.50;9.83;;;;;;;;;;5017725;28;20881;-93
2021/11/06 01:39:32;;;;;;;16.40;9.03;;;;;;;;;;5016121;28;20448;-93
2021/11/06 01:41:59;;;;;;;18.37;10.40;;;;;;;;;;5016704;28;20456;-91
2021/11/06 01:44:28;;;;;;;14.17;9.63;;;1.90;99.90;;;;;;5015762;28;20944;-91
2021/11/06 01:46:56;;;;;;;12.77;9.13;;;;;;;;;;5014479;28;20491;-92
2021/11/06 01:49:23;;;;;;;14.20;9.80;;;;;;;;;;5017031;28;20476;-92
2021/11/06 01:51:52;;;;;;;15.70;10.00;;;1.90;99.90;;;;;;5016575;28;20476;-96
2021/11/06 01:54:22;;;;;;;15.70;10.30;;;1.80;99.90;;;;;;5017116;28;20456;-93
2021/11/06 01:56:49;;;;;;;17.40;9.70;;;;;;;;;;5015854;28;20491;-93
2021/11/06 01:59:16;;;;;;;16.50;10.13;;;;;;;;;;5016740;28;20449;-94
2021/11/06 02:01:46;;;;;;;15.23;9.47;;;1.80;99.90;;;;;;5016583;28;20494;-92
2021/11/06 02:04:13;;;;;;;14.30;9.23;;;;;;;;;;5016621;28;20483;-93
2021/11/06 02:06:40;;;;;;;13.63;10.10;;;;;;;;;;5016739;28;20439;-92
2021/11/06 02:09:08;;;;;;;14.07;9.20;;;;;;;;;;5016864;28;20986;-93
2021/11/06 02:11:35;;;;;;;12.67;9.07;;;1.70;99.90;;;;;;5017077;28;20460;-93
2021/11/06 02:14:02;;;;;;;13.63;8.73;;;;;;;;;;5016249;28;20803;-92
2021/11/06 02:16:30;;;;;;;14.07;9.20;;;;;;;;;;5016733;28;20459;-93
2021/11/06 02:18:58;;;;;;;11.43;8.33;;;;;;;;;;5016216;28;20982;-94
2021/11/06 02:21:27;;;;;;;14.13;9.10;;;;;;;;;;5016910;28;20437;-94
2021/11/06 02:23:54;;;;;;;13.63;9.33;;;;;;;;;;5016256;28;20554;-93
2021/11/06 02:26:21;;;;;;;13.20;8.60;;;;;;;;;;5016376;28;20448;-92
2021/11/06 02:28:51;;;;;;;11.50;7.70;;;1.70;99.90;;;;;;5015966;28;20507;-93
2021/11/06 02:31:18;;;;;;;12.90;7.90;;;;;;;;;;5016252;28;20428;-94
2021/11/06 02:33:45;;;;;;;15.17;9.20;;;;;;;;;;5016437;28;20465;-94
2021/11/06 02:36:12;;;;;;;10.73;7.63;;;;;;;;;;5016625;28;20479;-94
2021/11/06 02:38:41;;;;;;;12.00;8.17;;;;;;;;;;5016354;28;20455;-93
2021/11/06 02:41:08;;;;;;;12.00;8.30;;;;;;;;;;5017182;28;20449;-93
2021/11/06 02:43:35;;;;;;;14.00;7.97;;;1.50;99.90;;;;;;5016891;28;20448;-92
2021/11/06 02:46:02;;;;;;;12.10;8.27;;;;;;;;;;5018523;28;20449;-94
2021/11/06 02:48:30;;;;;;;12.57;7.17;;;;;;;;;;5017292;28;20445;-92
2021/11/06 02:50:57;;;;;;;11.53;7.93;;;;;;;;;;5017681;28;20452;-92
2021/11/06 02:53:24;;;;;;;15.07;8.60;;;;;;;;;;5016901;28;20469;-93
2021/11/06 02:55:52;;;;;;;12.03;8.40;;;1.50;99.90;;;;;;5017354;28;20451;-93
2021/11/06 02:58:19;;;;;;;14.50;8.37;;;;;;;;;;5015030;28;20852;-91
2021/11/06 03:00:46;;;;;;;9.90;7.40;;;;;;;;;;5020362;28;20452;-91
2021/11/06 03:03:14;;;;;;;13.80;9.07;;;;;;;;;;5025796;28;20455;-89
2021/11/06 03:05:41;;;;;;;12.03;7.90;;;;;;;;;;5033422;28;20433;-90
2021/11/06 03:08:08;;;;;;;11.90;7.67;;;;;;;;;;5033333;28;20464;-94
2021/11/06 03:10:35;;;;;;;13.37;7.93;;;;;;;;;;5013086;28;20495;-93
2021/11/06 03:13:04;;;;;;;13.00;8.60;;;;;;;;;;5015192;28;20808;-92
2021/11/06 03:15:31;;;;;;;10.30;7.20;;;;;;;;;;5015417;28;20448;-93
2021/11/06 03:17:58;;;;;;;12.73;8.03;;;;;;;;;;5015354;28;20449;-93
2021/11/06 03:20:25;;;;;;;14.97;7.67;;;;;;;;;;5015265;28;20453;-94
2021/11/06 03:22:57;;;;;;;11.10;7.53;;;;;;;;;;5015503;28;20476;-94
2021/11/06 03:25:25;;;;;;;10.73;7.60;;;;;;;;;;5015612;28;20446;-92
2021/11/06 03:27:52;;;;;;;10.23;7.17;;;;;;;;;;5025556;28;20424;-92
2021/11/06 03:30:21;;;;;;;11.90;7.73;;;1.20;99.90;;;;;;5038804;28;20478;-92
2021/11/06 03:32:48;;;;;;;11.93;7.93;;;;;;;;;;5013823;28;20440;-94
2021/11/06 03:35:15;;;;;;;13.80;8.20;;;;;;;;;;5015850;28;20444;-92
2021/11/06 03:37:43;;;;;;;10.77;7.70;;;;;;;;;;5014961;28;20433;-93
2021/11/06 03:40:12;;;;;;;13.27;8.50;;;1.10;99.90;;;;;;5015335;28;20437;-91
2021/11/06 03:42:39;;;;;;;12.20;7.90;;;;;;;;;;5015183;28;20436;-93
2021/11/06 03:45:07;;;;;;;10.87;7.20;;;1.10;99.90;;;;;;5014914;28;20448;-93
2021/11/06 03:47:35;;;;;;;9.23;6.37;;;;;;;;;;5015134;28;20460;-93
2021/11/06 03:50:02;;;;;;;11.20;8.30;;;;;;;;;;5014971;28;20546;-94
2021/11/06 03:52:29;;;;;;;11.90;7.53;;;;;;;;;;5014958;28;20511;-92
2021/11/06 03:54:57;;;;;;;12.03;8.10;;;;;;;;;;5015514;28;20452;-93
2021/11/06 03:57:24;;;;;;;10.00;7.17;;;;;;;;;;5014409;28;20507;-92
2021/11/06 03:59:51;;;;;;;14.57;8.83;;;;;;;;;;5014925;28;20437;-93
2021/11/06 04:02:18;;;;;;;12.30;8.33;;;;;;;;;;5015298;28;20447;-92
2021/11/06 04:04:47;;;;;;;11.63;8.80;;;;;;;;;;5016477;28;20444;-93
2021/11/06 04:07:14;;;;;;;12.87;8.50;;;;;;;;;;5018375;28;20437;-93
2021/11/06 04:09:41;;;;;;;11.93;8.33;;;;;;;;;;5019188;28;20480;-93
2021/11/06 04:12:09;;;;;;;15.20;9.67;;;;;;;;;;5018205;28;20443;-92
2021/11/06 04:14:36;;;;;;;13.80;9.60;;;;;;;;;;5018707;28;20912;-94
2021/11/06 04:17:04;;;;;;;15.23;9.17;;;;;;;;;;5019018;28;20440;-93
2021/11/06 04:19:31;;;;;;;15.73;9.17;;;;;;;;;;5017609;28;20921;-92
2021/11/06 04:22:00;;;;;;;15.17;9.03;;;;;;;;;;5019637;28;20476;-91
2021/11/06 04:24:27;;;;;;;14.27;8.80;;;;;;;;;;5018954;28;20460;-92
2021/11/06 04:26:54;;;;;;;12.90;8.90;;;;;;;;;;5019268;28;20923;-93
2021/11/06 04:29:21;;;;;;;14.40;9.10;;;;;;;;;;5018722;28;20495;-92
2021/11/06 04:31:48;;;;;;;13.70;8.97;;;;;;;;;;5017327;28;20436;-92
2021/11/06 04:34:15;;;;;;;10.70;7.93;;;;;;;;;;5018759;28;20436;-95
2021/11/06 04:36:43;;;;;;;10.57;7.80;;;;;;;;;;5018620;28;20467;-93
2021/11/06 04:39:11;;;;;;;12.83;8.00;;;;;;;;;;5019560;28;20530;-95
2021/11/06 04:41:39;;;;;;;13.23;8.60;;;;;;;;;;5019888;28;20912;-92
2021/11/06 04:44:06;;;;;;;15.07;7.77;;;;;;;;;;5018487;28;20456;-93
2021/11/06 04:46:33;;;;;;;14.63;8.83;;;;;;;;;;5019305;28;20443;-90
2021/11/06 04:49:00;;;;;;;15.83;9.37;;;;;;;;;;5018165;28;20798;-93
2021/11/06 04:51:29;;;;;;;13.07;7.60;;;0.60;99.90;;;;;;5017554;28;20458;-91
2021/11/06 04:53:56;;;;;;;12.40;7.90;;;;;;;;;;5001792;28;20440;-91
2021/11/06 04:56:25;;;;;;;14.90;9.10;;;;;;;;;;5020243;28;20448;-93
2021/11/06 04:58:52;;;;;;;15.90;9.53;;;;;;;;;;5019395;28;20471;-94
2021/11/06 05:01:19;;;;;;;14.70;9.17;;;;;;;;;;5020725;28;20444;-92
2021/11/06 05:03:47;;;;;;;11.97;8.60;;;;;;;;;;5020931;28;20448;-93
2021/11/06 05:06:14;;;;;;;13.90;9.17;;;;;;;;;;5021710;28;20445;-92
2021/11/06 05:08:41;;;;;;;16.03;8.30;;;;;;;;;;5022444;28;20460;-94
2021/11/06 05:11:09;;;;;;;17.27;9.50;;;;;;;;;;5025325;28;20491;-94
2021/11/06 05:13:37;;;;;;;12.00;8.37;;;;;;;;;;5025650;28;20524;-93
2021/11/06 05:16:05;;;;;;;13.70;8.97;;;;;;;;;;5025969;28;20448;-94
2021/11/06 05:18:32;;;;;;;13.20;9.37;;;;;;;;;;5029119;28;20463;-91
2021/11/06 05:20:59;;;;;;;15.53;10.10;;;;;;;;;;5030854;28;20536;-92
2021/11/06 05:23:26;;;;;;;10.00;7.07;;;;;;;;;;5032275;28;20447;-91
2021/11/06 05:25:53;;;;;;;12.50;8.40;;;;;;;;;;5031142;28;20443;-93
2021/11/06 05:28:20;;;;;;;15.03;9.00;;;;;;;;;;5033943;28;20444;-93
2021/11/06 05:30:49;;;;;;;12.93;8.43;;;;;;;;;;5034680;28;20851;-91
2021/11/06 05:33:16;;;;;;;13.30;9.00;;;;;;;;;;5035195;28;20452;-91
2021/11/06 05:35:44;;;;;;;14.43;10.20;;;;;;;;;;5034808;28;20476;-92
2021/11/06 05:38:11;;;;;;;14.27;9.17;;;;;;;;;;5035811;28;20448;-91
2021/11/06 05:40:39;;;;;;;12.60;8.93;;;0.40;99.90;;;;;;5035374;28;20463;-92
2021/11/06 05:43:06;;;;;;;14.17;8.30;;;;;;;;;;5032383;28;20463;-92
2021/11/06 05:45:33;;;;;;;13.27;9.43;;;;;;;;;;5046594;22;20482;-91
2021/11/06 05:48:02;;;;;;;14.53;9.90;;;;;;;;;;5056689;28;20442;-90
2021/11/06 05:50:29;;;;;;;16.67;11.00;;;;;;;;;;5061764;22;20501;-90
2021/11/06 05:55:28;;;;;;;12.60;9.37;;;0.40;99.90;;;;;;5056462;22;20521;-89
2021/11/06 06:00:26;;;;;;;17.47;9.10;;;;;;;;;;5056758;22;20518;-91
2021/11/06 06:02:53;;;;;;;13.63;8.73;;;;;;;;;;5057626;28;20253;-92
2021/11/06 06:05:21;;;;;;;15.33;8.90;;;;;;;;;;5058192;28;20422;-90
2021/11/06 06:07:49;;;;;;;15.53;9.30;;;;;;;;;;5059575;22;20480;-90
2021/11/06 06:10:16;;;;;;;14.17;8.70;;;0.30;99.90;;;;;;5034994;28;20476;-89
2021/11/06 06:12:44;;;;;;;14.43;8.10;;;;;;;;;;5034799;28;20417;-88
2021/11/06 06:15:13;;;;;;;13.00;8.10;;;0.40;99.90;;;;;;5049326;22;20494;-90
2021/11/06 06:17:40;;;;;;;13.93;8.73;;;;;;;;;;5053109;28;20451;-88
2021/11/06 06:20:10;;;;;;;20.67;10.30;;;0.40;99.90;;;;;;5061220;22;20432;-89
2021/11/06 06:22:42;;;;;;;13.60;8.73;;;;;;;;;;5060150;22;20475;-88
2021/11/06 06:25:10;;;;;;;24.90;9.47;;;;;;;;;;5066545;22;20494;-90
2021/11/06 06:27:38;;;;;;;33.30;10.73;;;;;;;;;;5053194;28;20423;-90
2021/11/06 06:30:06;;;;;;;13.40;8.03;;;;;;;;;;5055426;28;20489;-91
2021/11/06 06:32:33;;;;;;;15.33;9.47;;;;;;;;;;5055768;28;20431;-91
2021/11/06 06:35:01;;;;;;;18.80;9.87;;;;;;;;;;5063272;22;20436;-89
2021/11/06 06:37:32;;;;;;;15.30;8.50;;;;;;;;;;5039111;22;20477;-94
2021/11/06 06:40:01;;;;;;;17.73;8.80;;;;;;;;;;5004556;28;20470;-91
2021/11/06 06:42:28;;;;;;;13.50;8.40;;;;;;;;;;5006230;28;20452;-91
2021/11/06 06:44:55;;;;;;;15.87;8.70;;;;;;;;;;5005631;28;20446;-93
2021/11/06 06:47:22;;;;;;;15.23;8.70;;;;;;;;;;5005109;28;20454;-91
2021/11/06 06:49:50;;;;;;;11.87;8.03;;;;;;;;;;5002462;28;20440;-92
2021/11/06 06:52:18;;;;;;;15.40;8.27;;;0.60;99.90;;;;;;5006106;28;20445;-92
2021/11/06 06:54:45;;;;;;;16.37;9.90;;;;;;;;;;5009454;28;20449;-89
2021/11/06 06:57:15;;;;;;;13.97;9.03;;;;;;;;;;5016475;22;20446;-88
2021/11/06 06:59:42;;;;;;;14.00;8.73;;;;;;;;;;5043250;28;20444;-94
2021/11/06 07:02:11;;;;;;;14.70;9.00;;;;;;;;;;5047823;22;20446;-88
2021/11/06 07:04:39;;;;;;;13.20;8.53;;;;;;;;;;5040257;22;20490;-88
2021/11/06 07:07:06;;;;;;;22.67;9.53;;;;;;;;;;5045927;28;20538;-89
2021/11/06 07:09:35;;;;;;;18.63;9.33;;;;;;;;;;5042856;28;20459;-88
2021/11/06 07:12:03;;;;;;;16.13;9.07;;;1.00;99.90;;;;;;5041778;28;20506;-88
2021/11/06 07:14:32;;;;;;;11.83;8.60;;;;;;;;;;5045430;28;20466;-88
2021/11/06 07:17:00;;;;;;;11.73;8.43;;;1.20;99.90;;;;;;5053305;22;20570;-93
2021/11/06 07:19:27;;;;;;;23.03;8.80;;;;;;;;;;5046295;28;20454;-88
2021/11/06 07:21:54;;;;;;;17.37;8.40;;;;;;;;;;5043155;28;20478;-89
2021/11/06 07:24:21;;;;;;;12.50;8.40;;;;;;;;;;5041486;28;20452;-90
2021/11/06 07:26:48;;;;;;;15.73;10.00;;;;;;;;;;5043696;28;20440;-90
2021/11/06 07:29:16;;;;;;;20.90;9.47;;;;;;;;;;5036987;28;20455;-92
2021/11/06 07:31:44;;;;;;;12.97;8.23;;;2.60;99.90;;;;;;5038878;28;20490;-91
2021/11/06 07:34:11;;;;;;;11.13;7.90;;;;;;;;;;5031950;28;20462;-91
2021/11/06 07:36:38;;;;;;;13.07;7.33;;;;;;;;;;5040418;28;20436;-94
2021/11/06 07:39:05;;;;;;;9.90;6.83;;;;;;;;;;5037788;28;20467;-91
2021/11/06 07:41:33;;;;;;;13.50;7.13;;;;;;;;;;5036761;28;20954;-91
2021/11/06 07:44:00;;;;;;;12.63;6.70;;;;;;;;;;5035293;28;20439;-91
2021/11/06 07:46:27;;;;;;;8.57;6.90;;;;;;;;;;5038342;28;20459;-93
2021/11/06 07:48:56;;;;;;;9.67;6.50;;;;;;;;;;5040511;28;20436;-90
2021/11/06 07:51:23;;;;;;;8.03;6.40;;;;;;;;;;5035933;28;21012;-92
2021/11/06 07:53:50;;;;;;;8.07;6.13;;;;;;;;;;5034207;28;20433;-90
2021/11/06 07:56:17;;;;;;;8.70;6.80;;;;;;;;;;5036830;28;20517;-92
2021/11/06 07:58:44;;;;;;;10.63;7.40;;;;;;;;;;5036923;28;20450;-91
2021/11/06 08:01:12;;;;;;;7.70;6.10;;;;;;;;;;5035614;28;20436;-93
2021/11/06 08:03:39;;;;;;;9.00;6.33;;;;;;;;;;5037121;28;20511;-91
2021/11/06 08:06:08;;;;;;;9.10;6.80;;;;;;;;;;5038693;28;20467;-93
2021/11/06 08:08:35;;;;;;;7.03;6.00;;;;;;;;;;5034734;28;20455;-92
2021/11/06 08:11:02;;;;;;;6.93;5.93;;;;;;;;;;5034797;28;20479;-90
2021/11/06 08:13:32;;;;;;;8.70;4.97;;;;;;;;;;5032132;28;20459;-92
2021/11/06 08:15:59;;;;;;;5.27;4.47;;;;;;;;;;5033141;28;20451;-92
2021/11/06 08:18:26;;;;;;;6.97;5.30;;;;;;;;;;5033105;28;20472;-91
2021/11/06 08:20:54;;;;;;;7.33;4.93;;;;;;;;;;5033066;28;20471;-92
2021/11/06 08:23:23;;;;;;;7.10;5.63;;;3.50;99.90;;;;;;5030618;28;20439;-90
2021/11/06 08:25:50;;;;;;;6.67;5.17;;;;;;;;;;5029377;28;20455;-90
2021/11/06 08:28:18;;;;;;;7.70;5.97;;;;;;;;;;5032492;28;20462;-90
2021/11/06 08:30:45;;;;;;;10.67;6.40;;;3.80;99.90;;;;;;5034542;28;20487;-91
2021/11/06 08:33:13;;;;;;;13.17;6.47;;;;;;;;;;5036688;28;20791;-92
2021/11/06 08:35:40;;;;;;;18.70;7.20;;;;;;;;;;5035395;28;20978;-90
2021/11/06 08:38:07;;;;;;;22.90;8.17;;;;;;;;;;5035310;28;20462;-90
2021/11/06 08:40:35;;;;;;;25.03;8.00;;;4.30;99.90;;;;;;5035624;28;20460;-90
2021/11/06 08:43:03;;;;;;;41.80;6.57;;;;;;;;;;5040118;28;20465;-91
2021/11/06 08:45:30;;;;;;;28.83;8.60;;;;;;;;;;5053847;28;20432;-87
2021/11/06 08:47:57;;;;;;;19.67;6.63;;;;;;;;;;5055202;28;20452;-87
2021/11/06 08:50:26;;;;;;;14.23;6.17;;;4.10;99.90;;;;;;5041723;28;20902;-92
2021/11/06 08:52:55;;;;;;;14.70;7.00;;;4.40;99.90;;;;;;5038296;28;20463;-90
2021/11/06 08:55:22;;;;;;;10.47;5.07;;;4.40;99.90;;;;;;5037963;28;20436;-90
2021/11/06 08:57:51;;;;;;;12.63;6.40;;;4.70;99.90;;;;;;5037197;28;20447;-89
2021/11/06 09:00:25;;;;;;;8.53;5.03;;;5.10;99.90;;;;;;5043771;28;20448;-89
2021/11/06 09:02:53;;;;;;;9.40;6.00;;;;;;;;;;5039694;28;20455;-91
2021/11/06 09:05:21;;;;;;;12.87;5.07;;;;;;;;;;5059057;22;20487;-88
2021/11/06 09:07:48;;;;;;;8.13;4.73;;;;;;;;;;5044517;28;20440;-88
2021/11/06 09:10:15;;;;;;;15.23;5.77;;;;;;;;;;5047359;28;20954;-89
2021/11/06 09:12:43;;;;;;;10.23;5.67;;;;;;;;;;5040023;28;20519;-91
2021/11/06 09:15:11;;;;;;;9.47;5.90;;;6.50;99.90;;;;;;5038602;28;20459;-89
2021/11/06 09:17:39;;;;;;;8.27;5.43;;;;;;;;;;5037803;28;20444;-91
2021/11/06 09:20:08;;;;;;;11.00;5.57;;;6.60;99.90;;;;;;5052234;22;20476;-88
2021/11/06 09:22:36;;;;;;;9.13;6.10;;;;;;;;;;5022157;28;20444;-88
2021/11/06 09:25:04;;;;;;;9.77;6.17;;;;;;;;;;5026257;28;21094;-88
2021/11/06 09:27:32;;;;;;;12.07;6.40;;;;;;;;;;5064484;22;20486;-88
2021/11/06 09:30:00;;;;;;;8.10;5.90;;;;;;;;;;5079681;22;20479;-88
2021/11/06 09:32:28;;;;;;;8.27;5.50;;;;;;;;;;5042313;28;20511;-93
2021/11/06 09:34:55;;;;;;;7.17;5.50;;;;;;;;;;5064083;22;20478;-89
2021/11/06 09:37:22;;;;;;;8.07;5.60;;;;;;;;;;5050770;28;20451;-93
2021/11/06 09:39:50;;;;;;;8.17;6.10;;;;;;;;;;5042235;28;20517;-94
2021/11/06 09:42:17;;;;;;;6.27;5.40;;;;;;;;;;5041599;28;20424;-91
2021/11/06 09:44:44;;;;;;;7.80;5.90;;;;;;;;;;5007750;28;20456;-90
2021/11/06 09:47:12;;;;;;;7.13;5.13;;;;;;;;;;5046646;22;21013;-91
2021/11/06 09:49:41;;;;;;;8.20;6.70;;;;;;;;;;5041885;28;21085;-92
2021/11/06 09:52:11;;;;;;;9.60;6.60;;;9.80;99.90;;;;;;5042153;28;20495;-92
2021/11/06 09:54:39;;;;;;;10.00;6.43;;;9.60;99.90;;;;;;5039976;28;20538;-93
2021/11/06 09:57:06;;;;;;;7.30;6.27;;;;;;;;;;5036926;28;20490;-92
2021/11/06 09:59:34;;;;;;;7.47;6.30;;;;;;;;;;5039762;28;20455;-94
2021/11/06 10:02:01;;;;;;;7.50;6.10;;;;;;;;;;5036082;28;20947;-92
2021/11/06 10:04:30;;;;;;;8.37;6.37;;;;;;;;;;5036015;28;20459;-91
2021/11/06 10:06:59;;;;;;;8.40;6.87;;;10.60;99.90;;;;;;5035354;28;20455;-90
2021/11/06 10:09:26;;;;;;;9.13;5.97;;;;;;;;;;5037059;28;20440;-90
2021/11/06 10:11:55;;;;;;;9.13;6.60;;;11.30;99.90;;;;;;5035863;28;20494;-93
2021/11/06 10:14:24;;;;;;;9.07;6.40;;;11.50;99.90;;;;;;5033450;28;20535;-90
2021/11/06 10:16:53;;;;;;;8.77;6.53;;;11.90;99.90;;;;;;5039701;28;20444;-88
2021/11/06 10:19:24;;;;;;;9.10;6.43;;;11.90;99.90;;;;;;5038205;28;20541;-92
2021/11/06 10:22:04;;;;;;;9.60;6.70;;;11.90;99.90;;;;;;5036898;28;20472;-92
2021/11/06 10:24:41;;;;;;;8.53;7.10;;;12.20;99.90;;;;;;5036414;28;20452;-94
2021/11/06 10:27:17;;;;;;;8.97;7.27;;;12.00;99.90;;;;;;5036432;28;20815;-89
2021/11/06 10:29:45;;;;;;;9.50;7.10;;;;;;;;;;5040656;28;20451;-92
2021/11/06 10:32:12;;;;;;;9.00;7.20;;;;;;;;;;5041095;28;20487;-95
2021/11/06 10:34:40;;;;;;;14.00;7.50;;;;;;;;;;5036093;28;20455;-89
2021/11/06 10:37:11;;;;;;;9.20;8.13;;;12.20;99.90;;;;;;5036132;28;20490;-91
2021/11/06 10:39:40;;;;;;;10.70;9.10;;;;;;;;;;5036603;28;20436;-91
2021/11/06 10:42:12;;;;;;;11.50;7.97;;;12.30;99.90;;;;;;5034061;28;20506;-91
2021/11/06 10:44:40;;;;;;;9.37;7.27;;;;;;;;;;5033924;28;20811;-88
2021/11/06 10:47:07;;;;;;;8.93;7.50;;;;;;;;;;5035684;28;20492;-87
2021/11/06 10:49:36;;;;;;;11.70;8.40;;;12.70;99.90;;;;;;5034979;28;20443;-93
2021/11/06 10:52:05;;;;;;;10.33;8.30;;;13.00;99.90;;;;;;5035194;28;20847;-91
2021/11/06 10:54:32;;;;;;;9.50;7.73;;;;;;;;;;5035760;28;20442;-92
2021/11/06 10:57:03;;;;;;;11.50;8.77;;;12.50;99.90;;;;;;5035348;28;20458;-90
2021/11/06 10:59:30;;;;;;;11.20;9.20;;;;;;;;;;5034498;28;20550;-89
2021/11/06 11:01:57;;;;;;;10.90;8.27;;;;;;;;;;5035019;28;20499;-90
2021/11/06 11:04:26;;;;;;;10.80;8.60;;;13.00;99.90;;;;;;5035596;28;20958;-89
2021/11/06 11:06:54;;;;;;;15.00;9.70;;;11.50;99.90;;;;;;5035908;28;20913;-94
2021/11/06 11:09:24;;;;;;;13.10;8.30;;;12.20;99.90;;;;;;5039378;28;20436;-92
2021/11/06 11:11:53;;;;;;;15.30;9.80;;;12.60;99.90;;;;;;5037291;28;20443;-90
2021/11/06 11:14:23;;;;;;;13.03;9.60;;;12.40;99.90;;;;;;5037569;28;20955;-95
2021/11/06 11:16:54;;;;;;;12.70;9.93;;;12.10;99.90;;;;;;5040307;28;20894;-93
2021/11/06 11:19:32;;;;;;;13.67;9.67;;;12.60;99.90;;;;;;5047364;28;20495;-92
2021/11/06 11:21:59;;;;;;;8.17;7.33;;;;;;;;;;5047253;28;20512;-91
2021/11/06 11:24:26;;;;;;;8.83;6.83;;;;;;;;;;5048805;28;20431;-93
2021/11/06 11:26:56;;;;;;;8.67;7.50;;;12.70;99.90;;;;;;5057957;28;20463;-92
2021/11/06 11:29:29;;;;;;;8.57;7.63;;;12.80;99.90;;;;;;5041514;28;20452;-94
2021/11/06 11:31:57;;;;;;;11.70;8.10;;;12.60;99.90;;;;;;5042018;28;20517;-94
2021/11/06 11:34:24;;;;;;;11.63;8.17;;;;;;;;;;5041312;28;20458;-93
2021/11/06 11:36:54;;;;;;;10.47;7.40;;;11.00;99.90;;;;;;5039571;28;20455;-92
2021/11/06 11:39:22;;;;;;;8.90;7.53;;;11.80;99.90;;;;;;5041769;28;20498;-90
2021/11/06 11:42:07;;;;;;;10.10;8.30;;;;;;;;;;5038195;28;20520;-92
2021/11/06 11:45:02;;;;;;;10.10;8.27;;;12.60;99.90;;;;;;5026018;28;20463;-87
2021/11/06 11:47:33;;;;;;;13.93;9.63;;;12.60;99.90;;;;;;5039263;28;20475;-93
2021/11/06 11:50:02;;;;;;;12.87;9.40;;;13.10;99.90;;;;;;5038748;28;20455;-89
2021/11/06 11:52:32;;;;;;;18.40;10.13;;;13.30;99.90;;;;;;5038646;28;20462;-88
2021/11/06 11:55:03;;;;;;;13.37;10.20;;;13.70;99.90;;;;;;5041725;28;20455;-89
2021/11/06 11:57:31;;;;;;;14.03;10.40;;;13.30;99.90;;;;;;5038106;28;20447;-93
2021/11/06 11:59:59;;;;;;;14.90;11.33;;;;;;;;;;5038727;28;20444;-92
2021/11/06 12:02:28;;;;;;;14.20;11.10;;;13.60;99.90;;;;;;5041167;28;20490;-89
2021/11/06 12:05:31;;;;;;;14.13;10.73;;;13.80;99.90;;;;;;5041063;28;20459;-87
2021/11/06 12:08:27;;;;;;;14.70;11.97;;;13.50;99.90;;;;;;5050852;28;20453;-89
2021/11/06 12:10:58;;;;;;;14.60;11.00;;;13.30;99.90;;;;;;5050033;28;20450;-93
2021/11/06 12:13:36;;;;;;;15.30;11.70;;;12.70;99.90;;;;;;5037100;28;20455;-92
2021/11/06 12:16:05;;;;;;;14.87;10.70;;;;;;;;;;5036196;28;20779;-90
2021/11/06 12:18:56;;;;;;;14.33;11.70;;;12.90;99.90;;;;;;5034915;28;20467;-92
2021/11/06 12:21:32;;;;;;;14.47;11.50;;;11.80;99.90;;;;;;5038141;28;20475;-92
2021/11/06 12:24:20;;;;;;;19.40;12.67;;;11.70;99.90;;;;;;5039134;28;20440;-91
2021/11/06 12:26:50;;;;;;;15.83;12.60;;;13.10;99.90;;;;;;5059008;28;20484;-93
2021/11/06 12:29:33;;;;;;;14.90;11.50;;;13.00;99.90;;;;;;5059175;28;20438;-89
2021/11/06 12:32:31;;;;;;;16.70;12.53;;;13.10;99.90;;;;;;5059950;28;20477;-91
2021/11/06 12:35:00;;;;;;;16.13;12.07;;;13.00;99.90;;;;;;5067224;28;20470;-93
2021/11/06 12:37:57;;;;;;;20.60;14.17;;;13.30;99.90;;;;;;5065294;28;20457;-93
2021/11/06 12:40:31;;;;;;;21.17;13.73;;;;;;;;;;5067368;28;20537;-94
2021/11/06 12:43:21;;;;;;;18.30;14.07;;;13.20;99.90;;;;;;5063221;28;20501;-91
2021/11/06 12:49:03;;;;;;;17.83;13.30;;;13.60;99.90;;;;;;5086126;22;20480;-92
2021/11/06 12:51:42;;;;;;;20.60;13.27;;;13.20;99.90;;;;;;5094359;28;20454;-89
2021/11/06 12:54:10;;;;;;;20.07;12.70;;;12.60;99.90;;;;;;5093321;28;20486;-92
2021/11/06 12:56:38;;;;;;;15.07;12.43;;;;;;;;;;5090002;28;20921;-92
2021/11/06 12:59:08;;;;;;;18.60;12.83;;;13.40;99.90;;;;;;5090139;28;20426;-90
2021/11/06 13:01:37;;;;;;;18.77;14.07;;;13.10;99.90;;;;;;5087393;28;20465;-93
2021/11/06 13:04:09;;;;;;;16.10;13.10;;;13.30;99.90;;;;;;5124143;22;20873;-91
2021/11/06 13:06:39;;;;;;;18.60;13.93;;;13.30;99.90;;;;;;5105262;28;20516;-91
2021/11/06 13:09:14;;;;;;;18.20;14.03;;;13.20;99.90;;;;;;5094172;28;20453;-93
2021/11/06 13:11:57;;;;;;;18.40;14.30;;;13.30;99.90;;;;;;5101476;28;20424;-91
2021/11/06 13:14:29;;;;;;;17.70;14.80;;;13.60;99.90;;;;;;5104738;28;20448;-91
2021/11/06 13:17:01;;;;;;;17.17;14.50;;;13.80;99.90;;;;;;5097139;28;20452;-92
2021/11/06 13:19:44;;;;;;;25.00;15.67;;;13.80;99.90;;;;;;5098410;28;20473;-89
2021/11/06 13:22:13;;;;;;;19.67;14.47;;;;;;;;;;5113291;22;20461;-94
2021/11/06 13:24:54;;;;;;;17.67;14.10;;;13.30;99.90;;;;;;5108558;28;20943;-90
2021/11/06 13:27:35;;;;;;;19.53;14.13;;;13.60;99.90;;;;;;5091304;28;20437;-93
2021/11/06 13:30:36;;;;;;;18.03;13.73;;;13.50;99.90;;;;;;5108143;28;20441;-93
2021/11/06 13:33:08;;;;;;;19.57;12.60;;;13.60;99.90;;;;;;5115375;22;20490;-92
2021/11/06 13:35:38;;;;;;;18.93;14.30;;;13.50;99.90;;;;;;5092837;28;20445;-88
2021/11/06 13:38:32;;;;;;;17.47;14.00;;;12.90;99.90;;;;;;5092837;28;20444;-89
2021/11/06 13:41:05;;;;;;;17.37;13.00;;;13.10;99.90;;;;;;5092229;28;20459;-89
2021/11/06 13:43:35;;;;;;;12.93;11.20;;;12.60;99.90;;;;;;5095266;28;20829;-91
2021/11/06 13:46:12;;;;;;;16.70;12.30;;;13.50;99.90;;;;;;5090184;28;20461;-86
2021/11/06 13:48:42;;;;;;;14.77;11.10;;;13.80;99.90;;;;;;5090361;28;20436;-86
2021/11/06 13:51:14;;;;;;;15.07;11.40;;;14.10;99.90;;;;;;5096721;28;20455;-90
2021/11/06 13:53:54;;;;;;;15.37;13.53;;;14.10;99.90;;;;;;5096762;28;20451;-90
2021/11/06 13:56:25;;;;;;;16.10;13.10;;;;;;;;;;5090165;28;20499;-89
2021/11/06 13:58:53;;;;;;;23.70;16.27;;;;;;;;;;5074318;28;20457;-92
2021/11/06 14:01:21;;;;;;;23.27;17.57;;;12.90;99.90;;;;;;5081608;28;20453;-92
2021/11/06 14:03:48;;;;;;;21.73;15.13;;;;;;;;;;5090337;28;20496;-89
2021/11/06 14:06:15;;;;;;;21.27;16.20;;;;;;;;;;5075343;28;20446;-89
2021/11/06 14:08:44;;;;;;;22.67;16.00;;;12.80;99.90;;;;;;5075708;28;20449;-94